Time;durP1;ratioP1;P1;durP2;ratioP2;P2;SDS_P1;SDS_P2;PMS_P1;PMS_P2;Temp;Humidity;BMP_temperature;BMP_pressure;BME280_temperature;BME280_humidity;BME280_pressure;Samples;Min_cycle;Max_cycle;Signal;HPM_P1;HPM_P2
2022/11/16 00:02:13;;;;;;;80.95;42.90;;;;;;;9.72;75.02;97723.97;5091618;28;20032;-70
2022/11/16 00:04:39;;;;;;;88.38;43.60;;;;;;;9.72;74.89;97721.25;5091937;28;20039;-71
2022/11/16 00:07:05;;;;;;;72.97;38.67;;;;;;;9.71;74.74;97714.16;5073359;28;20028;-70
2022/11/16 00:09:31;;;;;;;68.80;37.95;;;;;;;9.70;74.97;97712.53;5091365;28;20106;-71
2022/11/16 00:12:00;;;;;;;65.95;36.63;;;;;;;9.69;75.28;97708.16;5091624;28;20071;-71
2022/11/16 00:14:29;;;;;;;70.10;36.90;;;;;;;9.70;75.23;97711.72;5091420;28;20024;-70
2022/11/16 00:16:54;;;;;;;68.53;37.13;;;;;;;9.71;74.71;97716.09;5091260;28;20020;-70
2022/11/16 00:19:20;;;;;;;75.00;39.67;;;;;;;9.71;74.86;97713.34;5090182;28;20039;-71
2022/11/16 00:21:46;;;;;;;74.53;38.25;;;;;;;9.70;74.98;97707.06;5091508;28;20028;-71
2022/11/16 00:24:13;;;;;;;72.88;38.08;;;;;;;9.70;74.44;97706.25;5091559;28;20027;-72
2022/11/16 00:26:39;;;;;;;71.45;38.55;;;;;;;9.70;74.79;97709.00;5091537;28;20449;-70
2022/11/16 00:29:05;;;;;;;71.57;39.28;;;;;;;9.68;74.73;97710.13;5091425;28;20031;-71
2022/11/16 00:31:30;;;;;;;70.45;37.08;;;;;;;9.69;74.55;97708.16;5091750;28;20020;-71
2022/11/16 00:33:56;;;;;;;63.03;34.08;;;;;;;9.69;74.59;97702.69;5091191;28;20080;-70
2022/11/16 00:36:21;;;;;;;63.05;35.20;;;;;;;9.67;75.13;97708.50;5091195;28;20040;-70
2022/11/16 00:38:50;;;;;;;60.28;32.92;;;;;;;9.67;75.04;97696.72;5091574;28;20082;-71
2022/11/16 00:41:15;;;;;;;58.47;31.77;;;;;;;9.67;75.24;97694.81;5091677;28;20031;-71
2022/11/16 00:43:41;;;;;;;60.55;32.53;;;;;;;9.65;75.07;97697.03;5090687;28;20039;-71
2022/11/16 00:46:06;;;;;;;63.22;36.00;;;;;;;9.64;74.65;97691.84;5090361;28;20675;-71
2022/11/16 00:48:31;;;;;;;68.25;36.30;;;;;;;9.62;74.38;97691.34;5091454;28;20500;-70
2022/11/16 00:50:57;;;;;;;68.22;36.65;;;;;;;9.62;74.77;97696.81;5092083;28;20537;-70
2022/11/16 00:53:22;;;;;;;63.13;33.08;;;;;;;9.62;74.38;97691.34;5091437;28;20096;-70
2022/11/16 00:55:48;;;;;;;60.15;32.25;;;;;;;9.61;74.29;97684.25;5089978;28;20035;-70
2022/11/16 00:58:14;;;;;;;62.53;32.75;;;;;;;9.60;75.06;97682.63;5071860;28;20028;-70
2022/11/16 01:00:40;;;;;;;62.22;36.00;;;;;;;9.60;75.04;97686.19;5089944;28;20030;-70
2022/11/16 01:03:06;;;;;;;59.88;33.20;;;;;;;9.62;75.03;97678.50;5071678;28;20391;-70
2022/11/16 01:05:32;;;;;;;62.13;35.13;;;;;;;9.62;75.30;97675.75;5086012;28;20024;-70
2022/11/16 01:07:57;;;;;;;63.15;32.83;;;;;;;9.61;74.97;97673.31;5089566;28;20028;-70
2022/11/16 01:10:24;;;;;;;67.40;35.20;;;;;;;9.62;75.12;97672.19;5089214;28;20028;-71
2022/11/16 01:12:51;;;;;;;75.70;40.67;;;;;;;9.62;75.53;97672.19;5090036;28;20028;-72
2022/11/16 01:15:18;;;;;;;64.15;33.38;;;;;;;9.61;75.21;97679.59;5089603;28;20031;-72
2022/11/16 01:17:44;;;;;;;59.33;31.67;;;;;;;9.61;74.66;97676.03;5089592;28;20141;-71
2022/11/16 01:20:13;;;;;;;57.17;32.10;;;;;;;9.59;75.17;97673.63;5090623;28;20107;-71
2022/11/16 01:22:40;;;;;;;54.80;29.90;;;;;;;9.59;75.08;97672.81;5090714;28;20059;-72
2022/11/16 01:25:06;;;;;;;53.80;30.75;;;;;;;9.57;75.54;97666.84;5088935;28;20045;-71
2022/11/16 01:27:31;;;;;;;54.40;30.23;;;;;;;9.54;74.44;97662.78;5088473;28;20024;-72
2022/11/16 01:29:57;;;;;;;54.95;29.15;;;;;;;9.55;75.14;97655.41;5089261;28;20131;-71
2022/11/16 01:32:23;;;;;;;58.13;30.17;;;;;;;9.55;75.32;97652.66;5089243;28;20020;-71
2022/11/16 01:34:49;;;;;;;54.45;29.52;;;;;;;9.55;75.18;97653.47;5089044;28;20020;-72
2022/11/16 01:37:15;;;;;;;55.05;29.63;;;;;;;9.57;75.03;97653.16;5090133;28;20099;-72
2022/11/16 01:39:40;;;;;;;57.42;29.55;;;;;;;9.57;74.55;97643.00;5090423;28;20107;-72
2022/11/16 01:42:06;;;;;;;56.67;29.98;;;;;;;9.56;75.06;97640.59;5094386;28;20102;-72
2022/11/16 01:44:31;;;;;;;57.08;29.40;;;;;;;9.55;75.07;97641.72;5089421;28;20051;-72
2022/11/16 01:47:04;;;;;;;54.08;29.52;;;;;;;9.53;74.65;97636.53;5088582;28;20069;-72
2022/11/16 01:49:33;;;;;;;55.25;30.08;;;;;;;9.52;74.62;97634.91;5089190;28;20077;-72
2022/11/16 01:52:05;;;;;;;57.00;30.07;;;;;;;9.52;75.09;97634.91;5089774;28;20111;-71
2022/11/16 01:54:33;;;;;;;52.22;29.40;;;;;;;9.52;75.02;97630.28;5088280;28;20381;-71
2022/11/16 01:57:06;;;;;;;58.22;32.45;;;;;;;9.50;74.87;97639.88;5089343;28;20052;-71
2022/11/16 01:59:32;;;;;;;53.83;29.00;;;;;;;9.51;74.77;97633.28;5089329;28;20063;-72
2022/11/16 02:02:01;;;;;;;58.53;32.20;;;;;;;9.52;75.33;97634.91;5089906;28;20099;-71
2022/11/16 02:04:27;;;;;;;57.85;31.88;;;;;;;9.51;74.49;97620.44;5089928;28;20150;-71
2022/11/16 02:07:14;;;;;;;57.90;32.13;;;;;;;9.49;74.87;97625.41;5088779;28;20135;-71
2022/11/16 02:10:10;;;;;;;59.45;32.28;;;;;;;9.48;74.95;97618.31;5089137;28;20028;-71
2022/11/16 02:13:06;;;;;;;66.40;36.40;;;;;;;9.50;75.24;97623.47;5070829;28;20032;-71
2022/11/16 02:15:47;;;;;;;61.88;34.70;;;;;;;9.52;75.08;97623.97;5109545;28;20364;-71
2022/11/16 02:18:18;;;;;;;56.17;31.98;;;;;;;9.53;75.41;97615.47;5109027;28;20527;-72
2022/11/16 02:20:52;;;;;;;55.58;31.27;;;;;;;9.51;74.95;97623.19;5110374;28;20028;-72
2022/11/16 02:23:39;;;;;;;57.83;32.95;;;;;;;9.51;75.00;97614.13;5113824;28;20074;-72
2022/11/16 02:26:27;;;;;;;58.83;31.48;;;;;;;9.51;75.34;97608.66;5113317;28;20028;-71
2022/11/16 02:29:05;;;;;;;59.47;32.00;;;;;;;9.48;75.33;97615.56;5102113;28;20047;-72
2022/11/16 02:31:39;;;;;;;58.38;32.72;;;;;;;9.47;75.12;97604.94;5095399;28;20086;-72
2022/11/16 02:34:08;;;;;;;60.92;33.20;;;;;;;9.46;74.81;97609.59;5113731;28;20067;-71
2022/11/16 02:36:38;;;;;;;51.47;25.73;;;;;;;9.42;74.96;97597.66;5077870;28;20031;-72
2022/11/16 02:39:10;;;;;;;50.90;26.02;;;;;;;9.39;74.68;97601.00;5092748;28;20027;-71
2022/11/16 02:41:40;;;;;;;49.58;24.90;;;;;;;9.38;74.58;97610.34;5093093;28;20024;-71
2022/11/16 02:44:13;;;;;;;48.20;24.75;;;;;;;9.36;74.84;97604.38;5092817;28;20557;-72
2022/11/16 02:46:43;;;;;;;57.03;30.23;;;;;;;9.35;75.06;97594.53;5092703;28;20483;-71
2022/11/16 02:49:14;;;;;;;63.25;31.05;;;;;;;9.35;74.40;97602.75;5092257;28;20027;-71
2022/11/16 02:51:41;;;;;;;55.80;29.48;;;;;;;9.32;75.26;97601.44;5092600;28;20024;-72
2022/11/16 02:54:15;;;;;;;46.67;25.83;;;;;;;9.28;75.56;97602.34;5074125;28;20075;-72
2022/11/16 02:56:46;;;;;;;51.47;27.88;;;;;;;9.24;74.55;97602.19;5092290;28;20430;-72
2022/11/16 02:59:12;;;;;;;49.40;26.65;;;;;;;9.20;75.10;97596.50;5092109;28;20444;-72
2022/11/16 03:01:46;;;;;;;47.58;25.23;;;;;;;9.18;75.38;97600.66;5101606;28;20483;-72
2022/11/16 03:04:22;;;;;;;50.70;26.40;;;;;;;9.17;75.46;97593.56;5113074;28;20028;-72
2022/11/16 03:06:50;;;;;;;50.00;26.80;;;;;;;9.17;75.56;97599.06;5097113;28;20024;-71
2022/11/16 03:09:23;;;;;;;49.85;25.77;;;;;;;9.13;75.12;97598.03;5091571;28;20016;-72
2022/11/16 03:11:59;;;;;;;48.55;25.67;;;;;;;9.12;74.77;97602.72;5092768;28;20024;-72
2022/11/16 03:14:37;;;;;;;48.58;25.60;;;;;;;9.11;74.84;97597.53;5107187;28;20419;-72
2022/11/16 03:17:09;;;;;;;49.72;25.55;;;;;;;9.13;75.54;97593.41;5091435;28;20036;-71
2022/11/16 03:19:34;;;;;;;46.85;23.45;;;;;;;9.14;75.31;97594.19;5095719;28;20410;-73
2022/11/16 03:22:05;;;;;;;45.30;24.42;;;;;;;9.16;75.24;97600.16;5091859;28;20023;-72
2022/11/16 03:24:31;;;;;;;45.28;23.90;;;;;;;9.18;75.41;97585.03;5091574;28;20081;-72
2022/11/16 03:27:04;;;;;;;43.53;22.38;;;;;;;9.16;75.34;97594.69;5091566;28;20024;-72
2022/11/16 03:29:51;;;;;;;42.55;21.55;;;;;;;9.16;75.42;97586.50;5091480;28;20024;-70
2022/11/16 03:32:27;;;;;;;41.83;23.58;;;;;;;9.17;75.30;97588.09;5090549;28;20039;-72
2022/11/16 03:35:23;;;;;;;43.88;22.15;;;;;;;9.16;75.10;97584.56;5075003;28;20514;-68
2022/11/16 03:37:52;;;;;;;40.80;21.00;;;;;;;9.17;75.63;97585.38;5091302;28;20035;-69
2022/11/16 03:40:19;;;;;;;41.90;21.90;;;;;;;9.16;75.79;97584.56;5090969;28;20111;-68
2022/11/16 03:42:48;;;;;;;40.60;22.25;;;;;;;9.17;75.31;97577.97;5091838;28;20106;-68
2022/11/16 03:45:15;;;;;;;40.95;21.77;;;;;;;9.18;75.02;97567.84;5091722;28;20048;-69
2022/11/16 03:47:41;;;;;;;41.35;21.63;;;;;;;9.19;74.81;97564.78;5091741;28;20131;-69
2022/11/16 03:50:07;;;;;;;36.92;19.63;;;;;;;9.19;75.21;97562.03;5091239;28;20024;-69
2022/11/16 03:52:33;;;;;;;38.33;19.67;;;;;;;9.20;75.68;97560.94;5091138;28;20543;-68
2022/11/16 03:54:59;;;;;;;39.53;20.05;;;;;;;9.22;75.38;97563.38;5089943;28;20071;-68
2022/11/16 03:57:24;;;;;;;38.30;20.40;;;;;;;9.22;75.32;97555.16;5099820;28;20043;-69
2022/11/16 03:59:49;;;;;;;38.05;20.13;;;;;;;9.22;75.82;97550.47;5109812;28;20023;-69
2022/11/16 04:02:15;;;;;;;37.03;19.63;;;;;;;9.21;75.82;97548.88;5110250;28;20053;-68
2022/11/16 04:24:11;;;;;;;26.75;15.10;;;;;;;9.08;75.32;97520.44;5091452;28;20499;-70
2022/11/16 04:29:21;;;;;;;26.15;13.55;;;;;;;9.07;75.60;97521.56;5092132;28;20558;-69
2022/11/16 04:40:00;;;;;;;23.75;12.32;;;;;;;9.04;75.03;97507.72;5091491;28;20495;-69
2022/11/16 04:42:26;;;;;;;20.38;11.52;;;;;;;9.03;75.64;97508.81;5091907;28;20028;-69
2022/11/16 04:47:39;;;;;;;22.42;12.80;;;;;;;9.03;75.43;97495.94;5053379;28;20052;-69
2022/11/16 04:50:05;;;;;;;20.13;12.57;;;;;;;9.02;75.52;97483.38;5090517;28;20031;-69
2022/11/16 04:52:31;;;;;;;21.48;13.40;;;;;;;9.02;75.68;97490.81;5087596;28;20028;-70
2022/11/16 04:54:56;;;;;;;23.73;13.95;;;;;;;9.03;75.26;97487.75;5090192;28;20499;-70
2022/11/16 04:57:22;;;;;;;20.92;12.35;;;;;;;9.03;75.10;97478.75;5089799;28;20030;-70
2022/11/16 04:59:47;;;;;;;20.58;12.10;;;;;;;9.04;75.34;97474.88;5090641;28;20476;-71
2022/11/16 05:02:14;;;;;;;21.58;13.13;;;;;;;9.08;74.96;97478.63;5090375;28;20031;-71
2022/11/16 05:04:41;;;;;;;19.05;11.60;;;;;;;9.07;75.52;97479.75;5090471;28;20036;-70
2022/11/16 05:07:12;;;;;;;18.08;11.07;;;;;;;9.07;74.76;97472.34;5089989;28;20053;-70
2022/11/16 05:09:42;;;;;;;20.48;11.93;;;;;;;9.08;75.28;97468.47;5090409;28;20020;-70
2022/11/16 05:12:16;;;;;;;18.73;11.13;;;;;;;9.07;75.14;97466.06;5089988;28;20028;-70
2022/11/16 05:14:42;;;;;;;26.42;14.60;;;;;;;9.06;75.00;97478.13;5090144;28;20096;-71
2022/11/16 05:17:08;;;;;;;20.42;10.98;;;;;;;9.06;74.73;97478.13;5089791;28;20114;-70
2022/11/16 05:22:18;;;;;;;16.00;9.60;;;;;;;9.04;75.23;97472.16;5089636;28;20039;-70
2022/11/16 05:24:44;;;;;;;15.40;9.07;;;;;;;9.02;75.63;97468.91;5055027;28;20028;-70
2022/11/16 05:27:12;;;;;;;15.05;9.32;;;;;;;9.00;75.27;97482.09;5089145;28;20484;-70
2022/11/16 05:29:38;;;;;;;16.60;9.95;;;;;;;8.97;75.09;97472.56;5091136;28;20020;-70
2022/11/16 05:32:05;;;;;;;14.88;8.95;;;;;;;8.94;75.09;97468.53;5089978;28;20138;-70
2022/11/16 05:34:31;;;;;;;15.02;9.48;;;;;;;8.94;75.32;97462.28;5089805;28;20024;-70
2022/11/16 05:36:57;;;;;;;16.80;10.07;;;;;;;8.97;74.78;97467.09;5089832;28;20024;-69
2022/11/16 05:39:22;;;;;;;17.27;10.38;;;;;;;9.00;75.17;97465.69;5089763;28;20043;-70
2022/11/16 05:41:47;;;;;;;18.75;11.27;;;;;;;9.03;75.16;97470.53;5089890;28;20052;-70
2022/11/16 05:44:14;;;;;;;23.40;14.50;;;;;;;9.05;75.20;97466.38;5089162;28;20412;-70
2022/11/16 05:46:40;;;;;;;24.73;14.70;;;;;;;9.05;75.78;97465.56;5090275;28;20066;-69
2022/11/16 05:49:08;;;;;;;25.38;13.82;;;;;;;9.05;75.58;97465.56;5090286;28;20024;-69
2022/11/16 05:51:34;;;;;;;25.13;14.27;;;;;;;9.06;75.60;97453.50;5090225;28;20138;-70
2022/11/16 05:54:01;;;;;;;25.30;13.88;;;;;;;9.06;74.84;97465.25;5090355;28;20369;-70
2022/11/16 05:56:27;;;;;;;25.20;13.65;;;;;;;9.07;75.16;97464.13;5071960;28;20392;-69
2022/11/16 05:58:52;;;;;;;27.02;15.57;;;;;;;9.08;74.61;97460.28;5090245;28;20028;-70
2022/11/16 06:01:18;;;;;;;28.95;17.00;;;;;;;9.11;74.75;97461.59;5090770;28;20024;-69
2022/11/16 06:03:43;;;;;;;28.17;16.75;;;;;;;9.13;74.78;97458.53;5090353;28;20684;-69
2022/11/16 06:06:09;;;;;;;25.80;14.80;;;;;;;9.10;74.71;97457.25;5090093;28;20021;-70
2022/11/16 06:08:34;;;;;;;23.70;13.85;;;;;;;9.11;75.23;97456.13;5090317;28;20032;-70
2022/11/16 06:11:03;;;;;;;25.25;13.88;;;;;;;9.11;75.07;97453.38;5090434;28;20103;-70
2022/11/16 06:13:30;;;;;;;23.38;14.05;;;;;;;9.12;75.33;97452.28;5089962;28;20028;-70
2022/11/16 06:15:55;;;;;;;26.70;14.07;;;;;;;9.12;75.12;97455.00;5071267;28;20491;-69
2022/11/16 06:18:20;;;;;;;21.38;13.10;;;;;;;9.11;75.04;97455.31;5090406;28;20032;-70
2022/11/16 06:20:46;;;;;;;25.85;15.20;;;;;;;9.08;74.90;97460.28;5090409;28;20449;-70
2022/11/16 06:23:12;;;;;;;34.33;18.38;;;;;;;9.05;75.19;97457.38;5090417;28;20032;-69
2022/11/16 06:25:38;;;;;;;25.27;14.18;;;;;;;9.00;74.81;97454.75;5089552;28;20093;-70
2022/11/16 06:28:03;;;;;;;19.67;11.70;;;;;;;8.96;74.67;97457.31;5090008;28;20031;-69
2022/11/16 06:30:29;;;;;;;23.40;12.82;;;;;;;8.96;75.18;97453.75;5090362;28;20032;-70
2022/11/16 06:32:54;;;;;;;21.52;12.23;;;;;;;8.95;75.22;97458.44;5090313;28;20459;-69
2022/11/16 06:35:19;;;;;;;19.00;11.38;;;;;;;8.96;75.18;97453.75;5089959;28;20053;-69
2022/11/16 06:37:45;;;;;;;21.15;11.95;;;;;;;8.94;75.22;97452.13;5089942;28;20496;-69
2022/11/16 06:40:10;;;;;;;21.05;10.98;;;;;;;8.94;74.58;97454.88;5090032;28;20028;-70
2022/11/16 06:42:36;;;;;;;22.25;11.88;;;;;;;8.93;74.45;97464.19;5090117;28;20383;-69
2022/11/16 06:45:02;;;;;;;20.38;11.73;;;;;;;8.93;75.06;97453.25;5089055;28;20484;-69
2022/11/16 06:47:28;;;;;;;22.25;11.57;;;;;;;8.95;74.76;97455.69;5089665;28;20028;-69
2022/11/16 06:49:53;;;;;;;19.10;10.70;;;;;;;8.96;75.30;97451.00;5090188;28;20029;-70
2022/11/16 06:52:18;;;;;;;20.13;11.13;;;;;;;8.98;74.81;97452.31;5090425;28;20039;-69
2022/11/16 06:54:44;;;;;;;20.35;11.07;;;;;;;8.99;75.07;97453.94;5090075;28;20020;-69
2022/11/16 06:57:09;;;;;;;19.27;11.40;;;;;;;9.02;75.30;97444.31;5096223;28;20106;-69
2022/11/16 06:59:34;;;;;;;19.95;11.20;;;;;;;9.02;75.62;97444.31;5081544;28;20437;-69
2022/11/16 07:02:00;;;;;;;18.98;11.40;;;;;;;9.03;74.76;97445.94;5089871;28;20020;-69
2022/11/16 07:04:25;;;;;;;18.98;10.40;;;;;;;9.04;75.01;97442.06;5090116;28;20027;-69
2022/11/16 07:06:51;;;;;;;19.77;11.18;;;;;;;9.08;75.23;97448.53;5089249;28;20486;-69
2022/11/16 07:09:17;;;;;;;21.02;12.23;;;;;;;9.12;75.27;97448.72;5092889;28;20020;-71
2022/11/16 07:11:42;;;;;;;25.50;12.95;;;;;;;9.15;75.31;97453.56;5093586;28;20020;-69
2022/11/16 07:14:08;;;;;;;22.50;12.27;;;;;;;9.17;75.19;97448.59;5093515;28;20024;-69
2022/11/16 07:16:34;;;;;;;21.42;12.10;;;;;;;9.19;75.72;97443.63;5092472;28;20027;-69
2022/11/16 07:19:00;;;;;;;21.20;12.00;;;;;;;9.22;75.25;97435.56;5093252;28;20095;-69
2022/11/16 07:21:25;;;;;;;21.08;11.77;;;;;;;9.25;75.62;97447.84;5093251;28;20633;-69
2022/11/16 07:23:51;;;;;;;21.05;12.45;;;;;;;9.29;74.67;97437.06;5093325;28;20023;-69
2022/11/16 07:26:17;;;;;;;22.35;13.02;;;;;;;9.32;75.71;97434.53;5092722;28;20028;-69
2022/11/16 07:28:42;;;;;;;22.80;13.30;;;;;;;9.35;75.30;97433.09;5100293;28;20032;-69
2022/11/16 07:31:12;;;;;;;26.23;13.60;;;;;;;9.37;74.74;97434.38;5094820;28;20023;-69
2022/11/16 07:33:38;;;;;;;25.70;13.63;;;;;;;9.42;75.17;97438.09;5113960;28;20043;-69
2022/11/16 07:36:07;;;;;;;20.08;11.45;;;;;;;9.40;74.85;97443.91;5113246;28;20472;-69
2022/11/16 07:38:32;;;;;;;20.92;11.95;;;;;;;9.42;74.97;97427.97;5094474;28;20020;-69
2022/11/16 07:41:06;;;;;;;24.10;12.60;;;;;;;9.44;74.79;97425.72;5113189;28;20065;-70
2022/11/16 07:43:35;;;;;;;22.42;12.55;;;;;;;9.43;75.10;97423.28;5099247;28;20137;-69
2022/11/16 07:46:14;;;;;;;20.23;11.35;;;;;;;9.43;75.30;97418.66;5092712;28;20059;-69
2022/11/16 07:48:41;;;;;;;20.45;11.68;;;;;;;9.44;75.30;97414.78;5103008;28;20104;-70
2022/11/16 07:51:09;;;;;;;23.98;13.25;;;;;;;9.43;74.89;97412.34;5112934;28;20039;-69
2022/11/16 07:53:35;;;;;;;29.00;16.23;;;;;;;9.47;75.60;97410.59;5112538;28;20035;-70
2022/11/16 07:56:01;;;;;;;28.40;15.88;;;;;;;9.49;75.15;97411.09;5112884;28;20085;-69
2022/11/16 07:58:28;;;;;;;25.48;14.02;;;;;;;9.53;75.38;97414.81;5110114;28;20067;-70
2022/11/16 08:01:03;;;;;;;21.58;12.95;;;;;;;9.56;75.29;97411.47;5105722;28;20027;-70
2022/11/16 08:03:28;;;;;;;22.58;12.00;;;;;;;9.54;75.28;97405.50;5092290;28;20024;-70
2022/11/16 08:06:02;;;;;;;18.38;11.40;;;;;;;9.52;74.89;97405.00;5091897;28;20126;-70
2022/11/16 08:08:28;;;;;;;19.70;11.13;;;;;;;9.53;74.81;97410.16;5091544;28;20028;-70
2022/11/16 08:11:01;;;;;;;19.05;11.45;;;;;;;9.51;75.61;97403.38;5091955;28;20024;-70
2022/11/16 08:13:27;;;;;;;26.85;15.13;;;;;;;9.53;75.00;97404.69;5091580;28;20438;-71
2022/11/16 08:15:53;;;;;;;21.15;11.27;;;;;;;9.52;75.22;97402.25;5074013;28;20073;-70
2022/11/16 08:18:18;;;;;;;22.63;11.43;;;;;;;9.49;74.89;97400.97;5091105;28;20081;-70
2022/11/16 08:20:44;;;;;;;20.45;11.85;;;;;;;9.47;75.24;97399.66;5092264;28;20097;-69
2022/11/16 08:23:10;;;;;;;21.92;12.55;;;;;;;9.44;75.55;97398.38;5092138;28;20031;-72
2022/11/16 08:25:35;;;;;;;18.77;11.88;;;;;;;9.42;75.56;97399.78;5091886;28;20028;-71
2022/11/16 08:28:01;;;;;;;21.02;12.38;;;;;;;9.39;75.36;97401.25;5090987;28;20028;-70
2022/11/16 08:30:26;;;;;;;19.98;11.55;;;;;;;9.41;76.13;97407.19;5092153;28;20032;-70
2022/11/16 08:32:52;;;;;;;20.65;12.43;;;;;;;9.41;75.71;97404.47;5092257;28;20027;-69
2022/11/16 08:35:17;;;;;;;22.85;13.13;;;;;;;9.40;75.75;97405.59;5092171;28;20123;-70
2022/11/16 08:37:42;;;;;;;22.02;12.55;;;;;;;9.39;75.82;97402.03;5091687;28;20024;-70
2022/11/16 08:40:08;;;;;;;21.63;13.52;;;;;;;9.40;75.59;97402.84;5091318;28;20031;-70
2022/11/16 08:42:34;;;;;;;26.27;13.75;;;;;;;9.41;75.93;97403.66;5103892;28;20103;-70
2022/11/16 08:44:59;;;;;;;24.85;13.32;;;;;;;9.39;76.00;97398.50;5088268;28;20449;-69
2022/11/16 08:47:24;;;;;;;22.02;13.00;;;;;;;9.38;75.77;97397.69;5091082;28;20051;-70
2022/11/16 08:49:50;;;;;;;25.98;14.55;;;;;;;9.37;76.42;97403.47;5089489;28;20039;-69
2022/11/16 08:52:15;;;;;;;24.50;14.75;;;;;;;9.35;76.20;97400.25;5090609;28;20089;-69
2022/11/16 08:54:41;;;;;;;25.23;14.48;;;;;;;9.34;76.08;97404.09;5091102;28;20028;-69
2022/11/16 08:57:06;;;;;;;28.73;15.57;;;;;;;9.36;76.50;97404.59;5090546;28;20050;-69
2022/11/16 08:59:32;;;;;;;29.30;16.38;;;;;;;9.35;76.26;97402.97;5089946;28;20384;-70
2022/11/16 09:01:57;;;;;;;29.70;16.88;;;;;;;9.33;76.35;97403.31;5090833;28;20456;-70
2022/11/16 09:04:23;;;;;;;31.63;17.45;;;;;;;9.33;76.08;97407.97;5091097;28;20377;-69
2022/11/16 09:06:48;;;;;;;29.52;16.77;;;;;;;9.33;76.76;97408.78;5090695;28;20085;-68
2022/11/16 09:09:14;;;;;;;32.80;16.88;;;;;;;9.32;75.57;97406.34;5089825;28;20039;-68
2022/11/16 09:11:39;;;;;;;27.55;16.45;;;;;;;9.32;76.05;97407.16;5081038;28;20027;-69
2022/11/16 09:14:04;;;;;;;29.98;16.02;;;;;;;9.34;76.55;97398.63;5087902;28;20028;-69
2022/11/16 09:16:30;;;;;;;30.73;17.27;;;;;;;9.35;76.51;97401.06;5088184;28;20024;-68
2022/11/16 09:18:55;;;;;;;31.27;17.55;;;;;;;9.34;75.90;97401.38;5088112;28;20032;-69
2022/11/16 09:21:26;;;;;;;33.13;17.50;;;;;;;9.34;76.40;97393.97;5087899;28;20391;-69
2022/11/16 09:23:52;;;;;;;33.00;18.55;;;;;;;9.33;76.61;97392.38;5088075;28;20036;-68
2022/11/16 09:26:21;;;;;;;35.38;18.15;;;;;;;9.31;76.69;97396.53;5086448;28;20031;-69
2022/11/16 09:28:54;;;;;;;29.80;16.73;;;;;;;9.29;76.06;97398.75;5085222;28;20047;-69
2022/11/16 09:31:19;;;;;;;30.08;17.73;;;;;;;9.24;75.98;97394.25;5065462;28;20468;-68
2022/11/16 09:33:46;;;;;;;30.15;17.30;;;;;;;9.24;76.45;97396.97;5086876;28;20035;-70
2022/11/16 09:36:12;;;;;;;30.88;18.58;;;;;;;9.26;76.05;97391.19;5093295;28;20035;-69
2022/11/16 09:38:42;;;;;;;35.63;20.20;;;;;;;9.28;76.97;97389.75;5103160;28;20049;-68
2022/11/16 09:41:14;;;;;;;29.50;17.02;;;;;;;9.31;76.29;97396.53;5088399;28;20040;-68
2022/11/16 09:43:52;;;;;;;31.20;19.58;;;;;;;9.31;76.50;97391.88;5088589;28;20055;-69
2022/11/16 09:46:44;;;;;;;30.55;17.75;;;;;;;9.35;76.78;97390.13;5088438;28;20040;-68
2022/11/16 09:49:18;;;;;;;26.48;15.88;;;;;;;9.36;76.67;97386.28;5089043;28;20024;-69
2022/11/16 09:51:49;;;;;;;30.08;17.95;;;;;;;9.38;76.43;97381.25;5087058;28;20020;-67
2022/11/16 09:54:19;;;;;;;30.90;17.90;;;;;;;9.40;76.38;97386.44;5108041;28;20088;-69
2022/11/16 09:56:46;;;;;;;;;;;;;;;9.45;76.86;97383.56;5088907;28;20020;-68
2022/11/16 09:59:23;;;;;;;30.02;16.08;;;;;;;9.43;76.43;97380.34;5087749;28;19951;-69
2022/11/16 10:02:17;;;;;;;25.42;14.40;;;;;;;9.43;77.09;97376.78;5088171;28;20024;-68
2022/11/16 10:05:09;;;;;;;28.10;15.30;;;;;;;9.42;76.86;97366.94;5074190;28;20044;-70
2022/11/16 10:07:41;;;;;;;27.48;15.85;;;;;;;9.41;76.67;97368.88;5088572;28;20024;-68
2022/11/16 10:10:16;;;;;;;26.45;15.68;;;;;;;9.40;76.46;97364.53;5087785;28;20028;-70
2022/11/16 10:12:50;;;;;;;28.85;17.13;;;;;;;9.42;76.70;97358.75;5085486;28;20039;-70
2022/11/16 10:15:34;;;;;;;31.90;17.63;;;;;;;9.36;76.92;97360.81;5088232;28;20060;-70
2022/11/16 10:18:23;;;;;;;36.08;19.13;;;;;;;9.36;76.84;97358.09;5088223;28;20061;-70
2022/11/16 10:21:20;;;;;;;40.30;21.08;;;;;;;9.32;76.54;97355.19;5088602;28;20035;-70
2022/11/16 10:23:52;;;;;;;43.35;22.98;;;;;;;9.29;76.77;97357.72;5070108;28;20040;-69
2022/11/16 10:26:30;;;;;;;48.65;24.52;;;;;;;9.22;77.09;97356.25;5088411;28;20032;-69
2022/11/16 10:29:21;;;;;;;51.40;25.90;;;;;;;9.17;76.94;97352.84;5087879;28;20115;-68
2022/11/16 10:32:11;;;;;;;56.65;28.88;;;;;;;9.14;76.92;97351.56;5068219;28;20111;-70
2022/11/16 10:34:48;;;;;;;58.38;27.83;;;;;;;9.16;77.25;97345.75;5087909;28;20036;-70
2022/11/16 10:37:14;;;;;;;62.92;31.10;;;;;;;9.16;77.38;97349.31;5087909;28;20036;-68
2022/11/16 10:39:39;;;;;;;75.90;36.30;;;;;;;9.18;76.51;97346.25;5086643;28;20089;-70
2022/11/16 10:42:13;;;;;;;69.43;33.38;;;;;;;9.16;77.20;97343.84;5096596;28;20031;-70
2022/11/16 10:44:42;;;;;;;78.90;36.97;;;;;;;9.17;77.12;97339.16;5089523;28;20067;-70
2022/11/16 10:47:15;;;;;;;;;;;;;;;9.16;76.97;97349.31;5092850;28;20081;-69
2022/11/16 10:50:13;;;;;;;66.97;30.52;;;;;;;9.15;76.96;97339.50;5073117;28;19912;-72
2022/11/16 10:52:38;;;;;;;65.40;30.80;;;;;;;9.15;77.67;97325.81;5071763;28;20442;-72
2022/11/16 10:55:04;;;;;;;65.13;31.42;;;;;;;9.08;77.60;97331.72;5091055;28;20028;-71
2022/11/16 10:57:59;;;;;;;72.82;32.78;;;;;;;9.04;77.45;97329.94;5091671;28;20504;-76
2022/11/16 11:00:45;;;;;;;77.07;35.65;;;;;;;9.00;77.27;97327.00;5088967;28;20032;-73
2022/11/16 11:03:11;;;;;;;62.05;30.40;;;;;;;9.00;77.35;97326.22;5086609;28;20032;-70
2022/11/16 11:05:46;;;;;;;86.13;38.28;;;;;;;8.98;77.43;97322.97;5091688;28;20654;-72
2022/11/16 11:08:12;;;;;;;83.78;39.17;;;;;;;8.94;77.87;97326.34;5089020;28;20418;-70
2022/11/16 11:10:39;;;;;;;73.65;35.00;;;;;;;8.93;77.92;97324.72;5090068;28;20035;-70
2022/11/16 11:13:09;;;;;;;64.85;30.08;;;;;;;8.88;77.08;97324.06;5091400;28;20028;-71
2022/11/16 11:15:35;;;;;;;69.38;32.47;;;;;;;8.87;77.56;97325.97;5090380;28;20058;-71
2022/11/16 11:18:09;;;;;;;78.55;39.58;;;;;;;8.85;77.97;97317.28;5090683;28;20024;-70
2022/11/16 11:20:36;;;;;;;75.53;36.53;;;;;;;8.84;77.71;97320.34;5091363;28;20111;-70
2022/11/16 11:23:10;;;;;;;63.95;31.40;;;;;;;8.82;77.53;97319.84;5091227;28;20024;-72
2022/11/16 11:25:40;;;;;;;73.90;35.30;;;;;;;8.84;77.85;97317.59;5087831;28;20043;-70
2022/11/16 11:28:13;;;;;;;60.97;29.42;;;;;;;8.80;77.88;97311.94;5091147;28;20038;-71
2022/11/16 11:30:38;;;;;;;64.93;35.25;;;;;;;8.79;77.86;97316.59;5086843;28;20044;-70
2022/11/16 11:33:10;;;;;;;68.38;36.08;;;;;;;8.79;77.68;97313.06;5091031;28;20053;-71
2022/11/16 11:35:36;;;;;;;72.97;35.83;;;;;;;8.77;77.85;97310.66;5091988;28;20022;-70
2022/11/16 11:38:02;;;;;;;83.50;46.13;;;;;;;8.78;78.32;97311.44;5092107;28;20020;-70
2022/11/16 11:40:29;;;;;;;103.10;61.53;;;;;;;8.77;78.02;97307.91;5092102;28;20070;-71
2022/11/16 11:42:58;;;;;;;75.55;42.33;;;;;;;8.78;78.02;97316.91;5092311;28;20062;-71
2022/11/16 11:45:29;;;;;;;62.65;34.72;;;;;;;8.76;78.17;97314.50;5091813;28;20059;-71
2022/11/16 11:48:04;;;;;;;59.90;30.17;;;;;;;8.74;77.73;97310.47;5091653;28;20137;-71
2022/11/16 11:50:53;;;;;;;62.33;29.63;;;;;;;8.76;78.32;97317.22;5092231;28;20109;-72
2022/11/16 11:53:52;;;;;;;78.80;32.60;;;;;;;8.77;77.90;97307.91;5093830;28;20026;-69
2022/11/16 11:56:18;;;;;;;94.63;37.42;;;;;;;8.76;77.97;97313.72;5112159;28;20095;-70
2022/11/16 11:58:45;;;;;;;96.82;40.03;;;;;;;8.74;77.94;97307.75;5090436;28;20027;-68
2022/11/16 12:01:32;;;;;;;98.18;41.30;;;;;;;8.69;78.17;97300.47;5068227;28;20081;-69
2022/11/16 12:04:07;;;;;;;98.15;40.65;;;;;;;8.65;78.22;97304.94;5091208;28;20028;-71
2022/11/16 12:07:10;;;;;;;97.10;39.30;;;;;;;8.62;77.96;97303.66;5094922;28;20039;-70
2022/11/16 12:09:49;;;;;;;94.32;38.72;;;;;;;8.62;78.09;97300.09;5112040;28;20062;-70
2022/11/16 12:12:42;;;;;;;83.53;36.28;;;;;;;8.60;77.86;97292.22;5112341;28;20016;-70
2022/11/16 12:15:32;;;;;;;77.45;33.22;;;;;;;8.61;78.28;97295.75;5112279;28;20032;-70